Time;durP1;ratioP1;P1;durP2;ratioP2;P2;SDS_P1;SDS_P2;PMS_P1;PMS_P2;Temp;Humidity;BMP_temperature;BMP_pressure;BME280_temperature;BME280_humidity;BME280_pressure;Samples;Min_cycle;Max_cycle;Signal;HPM_P1;HPM_P2
2021/08/14 00:00:06;;;;;;;9.97;7.60;;;;;;;14.20;87.35;101515.25;697295;28;1209;-57
2021/08/14 00:00:26;;;;;;;10.30;7.55;;;;;;;14.22;87.04;101527.50;696525;28;1459;-57
2021/08/14 00:00:47;;;;;;;10.17;7.60;;;;;;;14.24;87.22;101523.09;697096;28;4408;-58
2021/08/14 00:01:07;;;;;;;10.33;7.90;;;;;;;14.27;87.23;101525.72;697396;28;1766;-56
2021/08/14 00:01:28;;;;;;;10.63;7.65;;;;;;;14.29;86.92;101523.94;697124;28;1817;-57
2021/08/14 00:01:48;;;;;;;11.23;7.83;;;;;;;14.33;87.08;101527.44;697701;28;2068;-56
2021/08/14 00:02:09;;;;;;;13.43;7.90;;;;;;;14.35;87.48;101532.69;696976;28;4190;-58
2021/08/14 00:02:29;;;;;;;11.80;7.87;;;;;;;14.38;87.14;101528.25;696375;28;1933;-58
2021/08/14 00:02:49;;;;;;;10.63;7.43;;;;;;;14.42;86.76;101530.00;696317;28;1664;-58
2021/08/14 00:03:10;;;;;;;10.57;7.47;;;;;;;14.41;87.21;101525.63;696829;28;1111;-57
2021/08/14 00:03:31;;;;;;;10.57;7.80;;;;;;;14.41;87.10;101522.09;693859;28;1918;-57
2021/08/14 00:03:51;;;;;;;10.37;8.07;;;;;;;14.47;86.26;101522.09;694616;28;4614;-57
2021/08/14 00:04:11;;;;;;;10.90;7.73;;;;;;;14.52;85.87;101535.19;694367;28;1736;-57
2021/08/14 00:04:32;;;;;;;11.03;7.23;;;;;;;14.54;85.87;101523.78;694619;28;1290;-57
2021/08/14 00:04:52;;;;;;;11.88;7.75;;;;;;;14.55;86.12;101522.91;694941;28;1726;-57
2021/08/14 00:05:12;;;;;;;10.27;7.70;;;;;;;14.57;86.13;101522.88;694743;28;4221;-56
2021/08/14 00:05:33;;;;;;;10.65;7.32;;;;;;;14.59;85.98;101529.00;693983;28;1320;-57
2021/08/14 00:05:53;;;;;;;10.70;7.17;;;;;;;14.60;85.75;101523.72;695043;28;2030;-57
2021/08/14 00:06:16;;;;;;;11.13;6.93;;;;;;;14.61;86.38;101532.50;694994;28;1312;-56
2021/08/14 00:06:36;;;;;;;9.85;7.45;;;;;;;14.56;86.18;101529.88;691144;28;1018;-57
2021/08/14 00:06:56;;;;;;;9.77;7.20;;;;;;;14.50;86.55;101522.06;691638;28;4358;-58
2021/08/14 00:07:17;;;;;;;10.03;7.47;;;;;;;14.51;86.30;101528.19;693112;28;1474;-58
2021/08/14 00:07:37;;;;;;;10.63;7.60;;;;;;;14.51;85.90;101528.19;692881;28;1619;-56
2021/08/14 00:07:57;;;;;;;10.23;7.28;;;;;;;14.51;86.41;101526.44;692716;28;1794;-56
2021/08/14 00:08:18;;;;;;;10.03;7.40;;;;;;;14.51;86.63;101521.19;691632;28;4534;-57
2021/08/14 00:08:38;;;;;;;9.70;7.40;;;;;;;14.48;86.44;101523.81;694876;28;1647;-58
2021/08/14 00:08:58;;;;;;;10.50;7.28;;;;;;;14.47;86.38;101527.34;693301;28;1785;-58
2021/08/14 00:09:19;;;;;;;10.63;7.40;;;;;;;14.47;86.06;101524.72;693343;28;1171;-56
2021/08/14 00:09:39;;;;;;;11.27;7.33;;;;;;;14.52;86.24;101535.19;693694;28;4507;-57
2021/08/14 00:09:59;;;;;;;11.07;7.63;;;;;;;14.50;86.27;101521.19;694065;28;1083;-58
2021/08/14 00:10:20;;;;;;;10.90;7.40;;;;;;;14.48;86.38;101524.69;694425;28;1068;-58
2021/08/14 00:10:43;;;;;;;10.27;7.43;;;;;;;14.48;86.48;101526.44;694469;28;1020;-58
2021/08/14 00:11:04;;;;;;;10.55;7.57;;;;;;;14.49;86.54;101522.94;693974;28;1452;-58
2021/08/14 00:11:25;;;;;;;9.77;7.35;;;;;;;14.51;86.94;101523.81;693392;28;4202;-58
2021/08/14 00:11:45;;;;;;;9.95;7.03;;;;;;;14.52;86.78;101524.66;693317;28;1648;-57
2021/08/14 00:12:06;;;;;;;11.30;7.30;;;;;;;14.51;86.72;101526.44;693741;28;1530;-57
2021/08/14 00:12:26;;;;;;;11.57;7.55;;;;;;;14.52;86.60;101524.66;695108;28;1382;-58
2021/08/14 00:12:47;;;;;;;9.95;7.57;;;;;;;14.51;86.46;101517.66;693252;28;4574;-56
2021/08/14 00:13:07;;;;;;;10.53;7.37;;;;;;;14.48;86.56;101515.91;694853;28;1306;-55
2021/08/14 00:13:27;;;;;;;9.97;7.40;;;;;;;14.46;86.24;101515.06;695014;28;1783;-57
2021/08/14 00:13:48;;;;;;;10.30;7.63;;;;;;;14.48;86.12;101526.44;694727;28;1556;-56
2021/08/14 00:14:08;;;;;;;10.17;7.70;;;;;;;14.47;86.31;101519.44;693885;28;1246;-57
2021/08/14 00:14:28;;;;;;;10.85;7.50;;;;;;;14.43;86.71;101520.38;694204;28;4221;-56
2021/08/14 00:14:49;;;;;;;11.07;7.43;;;;;;;14.40;87.16;101523.88;694790;28;1242;-56
2021/08/14 00:15:10;;;;;;;10.53;7.33;;;;;;;14.36;87.09;101521.25;692594;28;1525;-54
2021/08/14 00:15:31;;;;;;;10.40;7.30;;;;;;;14.33;87.06;101516.91;693431;28;1494;-57
2021/08/14 00:15:51;;;;;;;10.43;7.20;;;;;;;14.29;87.12;101518.69;694825;28;4551;-57
2021/08/14 00:16:11;;;;;;;9.43;7.15;;;;;;;14.24;87.39;101515.22;692386;28;971;-58
2021/08/14 00:16:32;;;;;;;9.60;6.80;;;;;;;14.23;87.66;101517.84;691239;28;1060;-57
2021/08/14 00:16:52;;;;;;;10.33;7.20;;;;;;;14.22;87.71;101522.25;692424;28;1049;-57
2021/08/14 00:17:12;;;;;;;11.52;7.40;;;;;;;14.22;87.83;101519.63;688017;28;1170;-56
2021/08/14 00:17:33;;;;;;;10.73;7.70;;;;;;;14.23;87.94;101513.47;688536;28;3898;-55
2021/08/14 00:17:53;;;;;;;10.20;7.25;;;;;;;14.27;87.32;101519.56;688158;28;3991;-58
2021/08/14 00:18:13;;;;;;;10.33;6.73;;;;;;;14.36;86.75;101518.63;691767;28;1163;-58
2021/08/14 00:18:34;;;;;;;9.70;6.87;;;;;;;14.39;86.74;101518.63;692770;28;1973;-57
2021/08/14 00:18:54;;;;;;;10.73;7.03;;;;;;;14.36;86.95;101519.53;689559;28;4582;-58
2021/08/14 00:19:15;;;;;;;13.00;7.60;;;;;;;14.33;86.82;101516.91;693521;28;1086;-58
2021/08/14 00:19:35;;;;;;;11.30;7.65;;;;;;;14.33;87.07;101523.91;692712;28;1103;-57
2021/08/14 00:19:56;;;;;;;10.00;7.43;;;;;;;14.30;87.17;101525.69;692821;28;1282;-58
2021/08/14 00:20:16;;;;;;;10.30;7.80;;;;;;;14.31;87.18;101518.66;692708;28;1155;-55
2021/08/14 00:20:36;;;;;;;9.93;7.50;;;;;;;14.28;87.43;101518.69;692765;28;4000;-54
2021/08/14 00:20:57;;;;;;;10.93;7.65;;;;;;;14.27;86.69;101516.94;693646;28;4242;-58
2021/08/14 00:21:17;;;;;;;12.03;7.70;;;;;;;14.28;86.70;101522.19;691307;28;1611;-58
2021/08/14 00:21:38;;;;;;;11.10;7.40;;;;;;;14.26;87.33;101518.72;692102;28;4559;-57
2021/08/14 00:21:58;;;;;;;11.83;7.40;;;;;;;14.27;87.48;101520.47;690567;28;1688;-58
2021/08/14 00:22:19;;;;;;;10.30;7.30;;;;;;;14.31;87.28;101519.53;691964;28;1397;-57
2021/08/14 00:22:39;;;;;;;10.80;7.30;;;;;;;14.33;87.08;101518.66;692948;28;1759;-56
2021/08/14 00:23:00;;;;;;;9.77;7.20;;;;;;;14.34;87.23;101525.69;692773;28;1513;-57
2021/08/14 00:23:20;;;;;;;8.93;7.10;;;;;;;14.36;87.31;101523.91;695198;28;1074;-56
2021/08/14 00:23:41;;;;;;;10.57;7.63;;;;;;;14.34;87.33;101521.28;693940;28;2969;-56
2021/08/14 00:24:01;;;;;;;9.73;7.47;;;;;;;14.30;87.48;101517.81;694499;28;4138;-56
2021/08/14 00:24:22;;;;;;;9.13;7.50;;;;;;;14.25;87.50;101521.34;693329;28;1671;-57
2021/08/14 00:24:42;;;;;;;9.30;7.20;;;;;;;14.19;87.57;101517.00;693300;28;4403;-57
2021/08/14 00:25:03;;;;;;;11.27;7.47;;;;;;;14.18;87.35;101522.25;694154;28;1537;-57
2021/08/14 00:25:24;;;;;;;10.27;7.22;;;;;;;14.21;87.61;101520.50;694687;28;1910;-56
2021/08/14 00:25:44;;;;;;;9.88;7.38;;;;;;;14.18;87.84;101520.53;691260;28;1594;-53
2021/08/14 00:26:04;;;;;;;10.53;7.63;;;;;;;14.17;87.89;101513.50;691598;28;1779;-56
2021/08/14 00:26:25;;;;;;;11.35;7.47;;;;;;;14.17;87.78;101521.41;693141;28;1670;-56
2021/08/14 00:26:45;;;;;;;10.33;7.47;;;;;;;14.17;87.98;101521.41;692452;28;3655;-58
2021/08/14 00:27:06;;;;;;;9.93;7.40;;;;;;;14.14;88.29;101519.66;685833;28;4402;-56
2021/08/14 00:27:26;;;;;;;10.40;7.30;;;;;;;14.14;88.18;101518.78;686845;28;1547;-56
2021/08/14 00:27:46;;;;;;;10.40;7.23;;;;;;;14.13;88.14;101522.28;689122;28;4480;-54
2021/08/14 00:28:07;;;;;;;10.05;7.25;;;;;;;14.18;87.72;101515.25;689074;28;1209;-56
2021/08/14 00:28:27;;;;;;;10.67;7.47;;;;;;;14.19;87.98;101519.66;689781;28;1757;-56
2021/08/14 00:28:47;;;;;;;12.43;7.53;;;;;;;14.21;87.80;101522.25;689592;28;1364;-57
2021/08/14 00:29:08;;;;;;;10.50;7.43;;;;;;;14.22;87.59;101524.88;695561;28;2014;-57
2021/08/14 00:29:28;;;;;;;9.00;7.03;;;;;;;14.22;87.57;101518.72;695617;28;1212;-58
2021/08/14 00:29:48;;;;;;;10.97;7.30;;;;;;;14.17;87.86;101516.13;695747;28;2554;-58
2021/08/14 00:30:09;;;;;;;12.67;7.90;;;;;;;14.14;88.32;101518.78;695149;28;4997;-57
2021/08/14 00:30:30;;;;;;;12.43;8.18;;;;;;;14.12;88.09;101517.91;695420;28;1789;-58
2021/08/14 00:30:50;;;;;;;10.80;7.63;;;;;;;14.09;88.16;101518.78;694210;28;4395;-57
2021/08/14 00:31:10;;;;;;;9.85;7.50;;;;;;;14.11;87.69;101513.56;693469;28;1297;-58
2021/08/14 00:31:34;;;;;;;11.25;7.72;;;;;;;14.11;88.19;101518.81;695604;28;1607;-57
2021/08/14 00:31:54;;;;;;;11.05;7.75;;;;;;;14.06;88.17;101515.31;693502;28;1666;-60
2021/08/14 00:32:14;;;;;;;11.13;7.50;;;;;;;14.04;88.35;101512.72;693260;28;1123;-56
2021/08/14 00:32:35;;;;;;;10.40;7.67;;;;;;;14.02;88.54;101518.84;693287;28;1509;-56
2021/08/14 00:32:55;;;;;;;11.15;8.00;;;;;;;13.95;88.64;101510.97;695322;28;4425;-57
2021/08/14 00:33:15;;;;;;;11.93;8.00;;;;;;;13.93;88.42;101511.91;694560;28;4890;-57
2021/08/14 00:33:36;;;;;;;11.98;7.90;;;;;;;13.94;88.11;101517.16;693790;28;1471;-56
2021/08/14 00:33:56;;;;;;;10.73;7.70;;;;;;;13.96;88.36;101509.25;690987;28;4652;-58
2021/08/14 00:34:17;;;;;;;10.18;7.50;;;;;;;13.98;87.85;101512.72;690888;28;1310;-57
2021/08/14 00:34:37;;;;;;;10.43;7.57;;;;;;;14.04;87.63;101511.81;691809;28;1487;-56
2021/08/14 00:34:57;;;;;;;9.83;7.60;;;;;;;14.09;87.25;101510.91;694608;28;888;-58
2021/08/14 00:35:18;;;;;;;10.07;7.53;;;;;;;14.14;86.59;101508.28;694673;28;1352;-57
2021/08/14 00:35:38;;;;;;;10.80;7.40;;;;;;;14.19;86.47;101516.13;694566;28;1654;-58
2021/08/14 00:36:00;;;;;;;11.45;7.40;;;;;;;14.19;86.65;101509.13;694442;28;1620;-52
2021/08/14 00:36:20;;;;;;;11.00;7.65;;;;;;;14.16;86.88;101509.13;692989;28;3912;-55
2021/08/14 00:36:40;;;;;;;10.82;7.70;;;;;;;14.17;86.77;101510.00;693915;28;4585;-56
2021/08/14 00:37:01;;;;;;;11.77;7.37;;;;;;;14.14;87.38;101510.91;691153;28;1436;-57
2021/08/14 00:37:21;;;;;;;11.05;7.75;;;;;;;14.10;87.14;101502.16;691047;28;1153;-57
2021/08/14 00:37:42;;;;;;;10.70;7.60;;;;;;;14.09;87.52;101510.91;691530;28;1611;-57
2021/08/14 00:38:02;;;;;;;10.80;8.10;;;;;;;14.08;87.36;101508.28;691154;28;1702;-58
2021/08/14 00:38:23;;;;;;;11.02;7.40;;;;;;;14.10;87.15;101517.06;691415;28;1548;-57
2021/08/14 00:38:43;;;;;;;11.27;7.75;;;;;;;14.12;87.21;101512.66;692062;28;1483;-56
2021/08/14 00:39:04;;;;;;;11.67;7.83;;;;;;;14.13;87.75;101514.41;693893;28;4229;-57
2021/08/14 00:39:24;;;;;;;11.23;7.95;;;;;;;14.12;87.97;101504.75;694372;28;4688;-58
2021/08/14 00:39:44;;;;;;;9.70;7.33;;;;;;;14.13;87.59;101512.63;694038;28;4361;-58
2021/08/14 00:40:06;;;;;;;10.40;7.60;;;;;;;14.16;87.77;101510.88;696614;28;1553;-58
2021/08/14 00:40:26;;;;;;;10.48;7.40;;;;;;;14.17;87.25;101508.25;696644;28;1821;-57
2021/08/14 00:40:47;;;;;;;11.07;7.20;;;;;;;14.20;87.00;101508.22;697736;28;1739;-56
2021/08/14 00:41:07;;;;;;;11.30;7.73;;;;;;;14.24;86.83;101509.94;694526;28;1549;-57
2021/08/14 00:41:32;;;;;;;10.40;7.57;;;;;;;14.26;86.58;101508.19;694935;28;1702;-57
2021/08/14 00:41:52;;;;;;;10.52;7.10;;;;;;;14.26;86.67;101502.94;693613;28;1536;-54
2021/08/14 00:42:12;;;;;;;10.03;7.30;;;;;;;14.27;86.89;101504.69;693976;28;4357;-58
2021/08/14 00:42:34;;;;;;;9.93;7.33;;;;;;;14.28;87.01;101505.56;693893;28;1471;-58
2021/08/14 00:42:55;;;;;;;11.18;7.75;;;;;;;14.26;87.24;101504.66;695216;28;4425;-58
2021/08/14 00:43:15;;;;;;;10.57;7.13;;;;;;;14.27;86.73;101507.31;697340;28;1344;-57
2021/08/14 00:43:35;;;;;;;10.98;7.32;;;;;;;14.28;86.42;101503.78;695979;28;1917;-58
2021/08/14 00:44:01;;;;;;;10.80;7.43;;;;;;;14.33;86.30;101502.88;696470;28;1578;-56
2021/08/14 00:44:21;;;;;;;10.18;7.18;;;;;;;14.33;86.34;101505.50;696872;28;1538;-57
2021/08/14 00:44:42;;;;;;;9.80;7.20;;;;;;;14.33;86.52;101505.50;697355;28;1688;-58
2021/08/14 00:45:04;;;;;;;9.80;6.93;;;;;;;14.30;86.46;101509.94;696711;28;3405;-57
2021/08/14 00:45:24;;;;;;;9.52;7.15;;;;;;;14.30;86.76;101509.03;696406;28;4547;-57
2021/08/14 00:45:45;;;;;;;10.93;7.40;;;;;;;14.25;86.99;101511.69;695557;28;4396;-56
2021/08/14 00:46:05;;;;;;;11.70;7.25;;;;;;;14.19;87.35;101511.75;696902;28;1911;-56
2021/08/14 00:46:26;;;;;;;10.77;7.70;;;;;;;14.11;87.67;101503.91;697240;28;1777;-57
2021/08/14 00:46:47;;;;;;;11.13;7.53;;;;;;;14.11;87.49;101503.03;697451;28;960;-56
2021/08/14 00:47:08;;;;;;;10.23;7.50;;;;;;;14.13;87.24;101502.13;696345;28;1670;-57
2021/08/14 00:47:28;;;;;;;10.90;7.25;;;;;;;14.14;87.55;101501.25;697466;28;1234;-57
2021/08/14 00:47:49;;;;;;;12.13;7.60;;;;;;;14.09;87.64;101504.78;697953;28;1250;-58
2021/08/14 00:48:10;;;;;;;11.77;7.50;;;;;;;14.05;87.63;101503.06;696814;28;4015;-57
2021/08/14 00:48:30;;;;;;;9.95;7.35;;;;;;;14.01;87.81;101504.84;695974;28;1711;-56
2021/08/14 00:48:51;;;;;;;10.18;7.15;;;;;;;14.02;87.52;101503.94;695448;28;4552;-56
2021/08/14 00:49:11;;;;;;;10.43;7.53;;;;;;;14.04;87.78;101501.31;697999;28;1286;-56
2021/08/14 00:49:32;;;;;;;10.02;7.57;;;;;;;14.02;88.09;101500.44;696762;28;1436;-57
2021/08/14 00:49:54;;;;;;;10.18;7.40;;;;;;;14.00;88.21;101499.56;696917;28;1536;-58
2021/08/14 00:50:14;;;;;;;9.80;7.18;;;;;;;13.98;88.13;101507.47;696908;28;1364;-57
2021/08/14 00:50:36;;;;;;;9.88;7.32;;;;;;;13.95;88.19;101502.22;694364;28;1125;-57
2021/08/14 00:50:57;;;;;;;10.50;7.78;;;;;;;13.98;88.10;101506.59;694945;28;3453;-57
2021/08/14 00:51:18;;;;;;;11.20;7.32;;;;;;;14.02;87.68;101497.81;694835;28;3642;-57
2021/08/14 00:51:38;;;;;;;10.65;7.30;;;;;;;14.01;87.84;101503.97;694776;28;4486;-55
2021/08/14 00:51:59;;;;;;;10.63;7.70;;;;;;;13.98;87.97;101504.84;692386;28;1733;-57
2021/08/14 00:52:21;;;;;;;9.48;7.43;;;;;;;13.97;87.87;101500.50;693198;28;1351;-56
2021/08/14 00:52:41;;;;;;;9.98;7.30;;;;;;;13.96;88.19;101502.22;694594;28;1667;-56
2021/08/14 00:53:02;;;;;;;9.93;7.17;;;;;;;13.95;88.39;101504.88;693915;28;1214;-55
2021/08/14 00:53:23;;;;;;;10.77;7.22;;;;;;;13.95;88.12;101505.72;694796;28;1301;-58
2021/08/14 00:53:43;;;;;;;10.07;7.18;;;;;;;14.00;87.87;101510.09;694094;28;1258;-57
2021/08/14 00:54:04;;;;;;;10.37;7.40;;;;;;;14.01;88.25;101507.47;692949;28;4916;-56
2021/08/14 00:54:24;;;;;;;11.23;7.40;;;;;;;13.98;88.19;101506.59;691701;28;1525;-56
2021/08/14 00:54:45;;;;;;;10.95;7.40;;;;;;;13.95;88.50;101507.50;687968;28;4400;-54
2021/08/14 00:55:06;;;;;;;10.30;7.40;;;;;;;13.93;88.47;101504.88;687019;28;1538;-56
2021/08/14 00:55:27;;;;;;;10.45;7.47;;;;;;;13.91;88.42;101508.38;687437;28;1622;-57
2021/08/14 00:55:48;;;;;;;9.73;7.27;;;;;;;13.86;88.81;101502.28;687175;28;1244;-57
2021/08/14 00:56:08;;;;;;;10.80;7.85;;;;;;;13.82;89.03;101505.78;687460;28;1582;-56
2021/08/14 00:56:30;;;;;;;10.20;7.60;;;;;;;13.79;88.82;101506.72;687379;28;1906;-56
2021/08/14 00:56:51;;;;;;;10.75;7.80;;;;;;;13.83;88.68;101505.81;690291;28;2576;-57
2021/08/14 00:57:11;;;;;;;10.67;7.57;;;;;;;13.82;89.06;101501.44;690747;28;3627;-57
2021/08/14 00:57:32;;;;;;;11.43;7.82;;;;;;;13.79;89.25;101502.31;690048;28;1618;-57
2021/08/14 00:57:52;;;;;;;10.30;7.50;;;;;;;13.81;88.47;101504.94;690863;28;4329;-58
2021/08/14 00:58:13;;;;;;;9.55;7.40;;;;;;;13.82;88.46;101497.91;693613;28;1544;-57
2021/08/14 00:58:33;;;;;;;10.38;7.90;;;;;;;13.86;87.91;101500.53;695476;28;1242;-56
2021/08/14 00:58:54;;;;;;;11.83;8.00;;;;;;;13.88;87.96;101500.53;695394;28;1295;-57
2021/08/14 00:59:15;;;;;;;10.52;7.47;;;;;;;13.88;87.88;101498.75;695139;28;1357;-54
2021/08/14 00:59:36;;;;;;;12.13;7.90;;;;;;;13.87;87.98;101498.78;695558;28;1226;-57
2021/08/14 00:59:56;;;;;;;13.07;7.72;;;;;;;13.82;88.48;101501.44;696702;28;3361;-57
2021/08/14 01:00:16;;;;;;;10.13;8.00;;;;;;;13.81;88.56;101499.69;692471;28;4052;-56
2021/08/14 01:00:38;;;;;;;11.23;7.93;;;;;;;13.81;88.28;101502.31;693237;28;1449;-57
2021/08/14 01:00:58;;;;;;;10.75;7.43;;;;;;;13.78;88.88;101494.44;693386;28;4577;-58
2021/08/14 01:01:25;;;;;;;11.35;7.68;;;;;;;13.74;88.77;101497.97;694185;28;1289;-58
2021/08/14 01:01:45;;;;;;;11.38;7.70;;;;;;;13.71;89.18;101503.25;693745;28;1271;-55
2021/08/14 01:02:07;;;;;;;11.15;7.68;;;;;;;13.72;88.98;101515.47;695393;28;1293;-57
2021/08/14 01:02:29;;;;;;;11.30;7.78;;;;;;;13.71;88.83;101509.38;696457;28;1600;-58
2021/08/14 01:02:49;;;;;;;10.52;7.90;;;;;;;13.70;88.70;101502.34;696709;28;1658;-57
2021/08/14 01:03:10;;;;;;;10.17;7.87;;;;;;;13.71;88.70;101505.88;696740;28;4603;-57
2021/08/14 01:03:31;;;;;;;11.13;7.90;;;;;;;13.68;88.79;101498.88;696064;28;1921;-57
2021/08/14 01:03:53;;;;;;;11.15;7.75;;;;;;;13.68;88.56;101500.59;696115;28;4328;-57
2021/08/14 01:04:14;;;;;;;11.75;8.25;;;;;;;13.70;88.70;101501.50;696732;28;1389;-58
2021/08/14 01:04:35;;;;;;;11.20;7.65;;;;;;;13.72;89.08;101503.22;697504;28;1175;-55
2021/08/14 01:04:55;;;;;;;12.50;7.97;;;;;;;13.70;88.84;101504.13;697509;28;1094;-55
2021/08/14 01:05:17;;;;;;;10.87;8.00;;;;;;;13.72;88.78;101499.72;696797;28;1126;-56
2021/08/14 01:05:41;;;;;;;12.05;7.68;;;;;;;13.75;88.43;101499.72;693964;28;939;-56
2021/08/14 01:06:01;;;;;;;10.13;7.07;;;;;;;13.80;87.94;101503.19;693194;28;4099;-57
2021/08/14 01:06:23;;;;;;;10.13;7.20;;;;;;;13.82;88.22;101501.44;693875;28;1597;-57
2021/08/14 01:06:44;;;;;;;9.90;7.13;;;;;;;13.82;88.31;101504.06;692300;28;4542;-57
2021/08/14 01:07:04;;;;;;;11.90;7.53;;;;;;;13.81;88.46;101499.69;693951;28;1464;-56
2021/08/14 01:07:25;;;;;;;12.35;7.68;;;;;;;13.80;88.10;101497.94;695902;28;1330;-56
2021/08/14 01:07:47;;;;;;;11.40;7.13;;;;;;;13.81;87.87;101502.31;697803;28;1008;-56
2021/08/14 01:08:08;;;;;;;10.23;7.20;;;;;;;13.88;87.61;101497.91;697067;28;1665;-57
2021/08/14 01:08:28;;;;;;;9.48;7.10;;;;;;;13.91;87.49;101497.88;697070;28;1658;-56
2021/08/14 01:08:50;;;;;;;10.43;7.30;;;;;;;13.90;87.88;101498.75;697881;28;4132;-57
2021/08/14 01:09:11;;;;;;;11.07;7.70;;;;;;;13.89;87.62;101495.25;696329;28;1670;-54
2021/08/14 01:09:31;;;;;;;10.97;7.57;;;;;;;13.91;87.78;101496.09;696218;28;1895;-56
2021/08/14 01:09:51;;;;;;;11.60;7.70;;;;;;;13.92;87.74;101495.25;697189;28;4566;-55
2021/08/14 01:10:12;;;;;;;11.40;7.72;;;;;;;13.94;87.75;101500.47;697154;28;1416;-56
2021/08/14 01:10:32;;;;;;;10.43;7.43;;;;;;;13.93;87.88;101494.38;696592;28;1492;-55
2021/08/14 01:10:53;;;;;;;9.82;7.65;;;;;;;13.88;88.11;101498.75;697311;28;1453;-56
2021/08/14 01:11:14;;;;;;;11.18;7.82;;;;;;;13.87;88.21;101493.50;696708;28;1628;-56
2021/08/14 01:11:37;;;;;;;10.73;7.53;;;;;;;13.89;88.06;101494.41;697640;28;1427;-58
2021/08/14 01:12:04;;;;;;;12.88;7.82;;;;;;;13.89;88.21;101491.78;696657;28;4652;-58
2021/08/14 01:12:24;;;;;;;11.93;7.53;;;;;;;13.90;87.99;101493.50;696499;28;1370;-58
2021/08/14 01:12:48;;;;;;;11.93;7.77;;;;;;;13.87;88.13;101493.50;695752;28;4572;-57
2021/08/14 01:13:08;;;;;;;10.98;7.53;;;;;;;13.78;88.55;101495.31;696021;28;1634;-58
2021/08/14 01:13:32;;;;;;;10.83;7.33;;;;;;;13.70;88.30;101502.34;695724;28;2125;-58
2021/08/14 01:13:53;;;;;;;10.18;7.50;;;;;;;13.66;89.05;101497.13;696021;28;1288;-56
2021/08/14 01:14:14;;;;;;;10.70;7.63;;;;;;;13.63;88.94;101496.25;697289;28;939;-56
2021/08/14 01:14:34;;;;;;;10.43;7.88;;;;;;;13.61;88.84;101486.66;697530;28;1471;-57
2021/08/14 01:14:54;;;;;;;11.30;7.60;;;;;;;13.59;88.49;101489.25;695701;28;4583;-54
2021/08/14 01:15:15;;;;;;;12.07;7.60;;;;;;;13.56;88.80;101493.66;696561;28;1505;-56
2021/08/14 01:15:40;;;;;;;10.17;7.50;;;;;;;13.53;89.58;101493.69;695655;28;1533;-55
2021/08/14 01:16:01;;;;;;;10.35;7.68;;;;;;;13.55;88.94;101490.16;696337;28;4776;-57
2021/08/14 01:16:21;;;;;;;10.30;7.70;;;;;;;13.58;89.08;101497.16;697476;28;1325;-57
2021/08/14 01:16:42;;;;;;;10.77;7.80;;;;;;;13.56;89.48;101485.78;694128;28;1649;-56
2021/08/14 01:17:03;;;;;;;11.07;7.53;;;;;;;13.58;88.96;101487.53;694382;28;1491;-57
2021/08/14 01:17:23;;;;;;;10.73;7.63;;;;;;;13.58;89.39;101492.78;693308;28;1417;-58
2021/08/14 01:17:44;;;;;;;11.07;8.23;;;;;;;13.57;89.27;101485.78;693309;28;4177;-57
2021/08/14 01:18:04;;;;;;;11.80;7.90;;;;;;;13.58;89.06;101491.88;689279;28;1518;-56
2021/08/14 01:18:24;;;;;;;10.90;7.60;;;;;;;13.61;89.14;101486.66;690392;28;1428;-57
2021/08/14 01:18:46;;;;;;;11.53;7.83;;;;;;;13.60;88.94;101488.38;690667;28;4552;-57
2021/08/14 01:19:07;;;;;;;10.55;7.85;;;;;;;13.61;88.80;101484.03;691572;28;1271;-55
2021/08/14 01:19:28;;;;;;;10.38;8.07;;;;;;;13.65;88.83;101487.50;691581;28;1480;-56
2021/08/14 01:19:48;;;;;;;11.10;7.95;;;;;;;13.67;88.60;101481.34;691599;28;1204;-56
2021/08/14 01:20:09;;;;;;;9.67;7.57;;;;;;;13.70;88.18;101483.09;697213;28;1680;-55
2021/08/14 01:20:30;;;;;;;10.77;7.60;;;;;;;13.73;88.28;101483.94;696485;28;1449;-54
2021/08/14 01:20:50;;;;;;;10.73;7.30;;;;;;;13.76;88.36;101486.56;696722;28;4718;-56
2021/08/14 01:21:23;;;;;;;10.97;7.50;;;;;;;13.79;88.25;101483.94;695569;28;1677;-57
2021/08/14 01:21:51;;;;;;;11.27;7.45;;;;;;;13.83;87.53;101487.44;696121;28;4877;-57
2021/08/14 01:22:12;;;;;;;11.82;7.72;;;;;;;13.83;87.82;101482.16;695741;28;1527;-55
2021/08/14 01:22:37;;;;;;;9.80;7.18;;;;;;;13.85;87.61;101485.66;697316;28;1422;-55
2021/08/14 01:22:57;;;;;;;9.63;7.28;;;;;;;13.86;87.61;101487.41;696403;28;1203;-56
2021/08/14 01:23:18;;;;;;;10.85;7.78;;;;;;;13.85;87.98;101485.66;695075;28;1576;-58
2021/08/14 01:23:38;;;;;;;12.10;7.70;;;;;;;13.81;87.54;101483.91;694756;28;4169;-57
2021/08/14 01:24:01;;;;;;;12.67;7.67;;;;;;;13.79;87.63;101483.06;694133;28;4139;-56
2021/08/14 01:24:22;;;;;;;10.25;7.30;;;;;;;13.80;87.86;101490.03;693868;28;1853;-55
2021/08/14 01:24:46;;;;;;;13.48;7.97;;;;;;;13.77;87.98;101487.44;693661;28;5283;-58
2021/08/14 01:25:09;;;;;;;12.25;8.00;;;;;;;13.71;87.96;101490.09;691907;28;1714;-55
2021/08/14 01:25:29;;;;;;;12.25;8.30;;;;;;;13.66;88.43;101489.25;693337;28;1621;-56
2021/08/14 01:26:06;;;;;;;11.20;7.82;;;;;;;13.59;88.55;101488.38;693809;28;1286;-58
2021/08/14 01:26:29;;;;;;;13.20;8.25;;;;;;;13.57;88.74;101491.03;695054;28;1528;-58
2021/08/14 01:26:50;;;;;;;12.15;8.60;;;;;;;13.55;88.56;101490.16;694155;28;4203;-57
2021/08/14 01:27:11;;;;;;;12.23;8.35;;;;;;;13.53;88.93;101489.28;692418;28;1510;-56
2021/08/14 01:27:36;;;;;;;10.80;8.00;;;;;;;13.53;88.53;101488.44;692628;28;1690;-54
2021/08/14 01:27:56;;;;;;;10.95;8.25;;;;;;;13.52;88.72;101484.91;689226;28;5393;-56
2021/08/14 01:28:17;;;;;;;10.10;7.60;;;;;;;13.55;88.71;101490.16;686871;28;1539;-55
2021/08/14 01:28:38;;;;;;;11.13;7.83;;;;;;;13.53;89.13;101486.66;687366;28;1514;-56
2021/08/14 01:29:02;;;;;;;10.98;8.15;;;;;;;13.54;89.42;101484.91;687970;28;1799;-57
2021/08/14 01:29:22;;;;;;;10.57;8.00;;;;;;;13.53;88.59;101486.66;689812;28;1532;-57
2021/08/14 01:29:42;;;;;;;11.93;8.00;;;;;;;13.55;88.71;101490.16;689920;28;4242;-57
2021/08/14 01:30:05;;;;;;;12.63;8.63;;;;;;;13.55;89.08;101490.16;691249;28;1988;-57
2021/08/14 01:30:25;;;;;;;9.85;8.07;;;;;;;13.55;89.28;101484.88;694091;28;1638;-55
2021/08/14 01:30:45;;;;;;;10.85;8.02;;;;;;;13.55;88.80;101484.88;694199;28;4438;-57
2021/08/14 01:31:08;;;;;;;12.27;8.07;;;;;;;13.53;88.93;101489.28;693563;28;1099;-57
2021/08/14 01:31:29;;;;;;;12.60;8.25;;;;;;;13.49;89.23;101495.44;693609;28;1903;-55
2021/08/14 01:31:49;;;;;;;11.33;7.77;;;;;;;13.49;89.08;101492.81;694339;28;1432;-55
2021/08/14 01:32:10;;;;;;;11.40;7.80;;;;;;;13.51;89.24;101490.16;693512;28;1327;-56
2021/08/14 01:32:31;;;;;;;11.00;8.38;;;;;;;13.50;89.13;101488.41;693427;28;4161;-56
2021/08/14 01:32:52;;;;;;;12.45;8.57;;;;;;;13.47;89.50;101494.56;694475;28;4667;-56
2021/08/14 01:33:13;;;;;;;11.13;8.05;;;;;;;13.44;89.97;101492.84;693681;28;1690;-56
2021/08/14 01:33:35;;;;;;;11.13;8.00;;;;;;;13.44;89.02;101484.06;693860;28;1389;-55
2021/08/14 01:33:55;;;;;;;11.30;7.70;;;;;;;13.43;89.05;101491.09;692885;28;4599;-55
2021/08/14 01:34:20;;;;;;;11.63;8.10;;;;;;;13.39;90.10;101491.09;693678;28;1193;-58
2021/08/14 01:34:41;;;;;;;10.77;8.15;;;;;;;13.33;90.22;101485.81;694933;28;1031;-57
2021/08/14 01:35:02;;;;;;;11.90;8.30;;;;;;;13.28;90.58;101493.72;692905;28;1667;-56
2021/08/14 01:35:23;;;;;;;12.05;8.40;;;;;;;13.24;90.76;101492.00;694452;28;3524;-57
2021/08/14 01:35:45;;;;;;;11.90;8.53;;;;;;;13.22;90.35;101492.00;695038;28;2713;-57
2021/08/14 01:36:07;;;;;;;10.50;7.90;;;;;;;13.23;90.00;101493.72;694036;28;1842;-57
2021/08/14 01:36:27;;;;;;;10.10;7.75;;;;;;;13.27;89.77;101482.31;693425;28;1757;-57
2021/08/14 01:36:50;;;;;;;11.52;8.10;;;;;;;13.34;89.84;101487.59;694596;28;4420;-55
2021/08/14 01:37:11;;;;;;;10.80;8.45;;;;;;;13.38;89.56;101482.34;694688;28;1497;-57
2021/08/14 01:37:31;;;;;;;10.43;7.93;;;;;;;13.44;89.58;101490.22;694085;28;1867;-56
2021/08/14 01:37:52;;;;;;;10.32;7.97;;;;;;;13.47;89.53;101491.06;694165;28;978;-56
2021/08/14 01:38:12;;;;;;;10.57;8.30;;;;;;;13.47;89.11;101484.03;693491;28;1087;-56
2021/08/14 01:38:33;;;;;;;11.18;8.20;;;;;;;13.51;89.23;101491.03;694652;28;3341;-55
2021/08/14 01:39:00;;;;;;;12.25;7.93;;;;;;;13.56;88.78;101489.28;693884;28;5033;-58